createdAt,value
2019-05-15T00:00:49.203Z,12.98
2019-05-15T00:03:19.790Z,13.45
2019-05-15T00:05:49.499Z,13.78
2019-05-15T00:08:18.654Z,13.75
2019-05-15T00:10:48.432Z,13.80
2019-05-15T00:13:18.455Z,12.65
2019-05-15T00:15:48.136Z,13.18
2019-05-15T00:18:18.542Z,12.82
2019-05-15T00:20:49.660Z,13.40
2019-05-15T00:23:18.354Z,14.18
2019-05-15T00:25:48.773Z,13.30
2019-05-15T00:28:18.579Z,13.68
2019-05-15T00:30:48.098Z,13.30
2019-05-15T00:33:19.143Z,13.00
2019-05-15T00:35:48.600Z,12.95
2019-05-15T00:38:18.629Z,13.98
2019-05-15T00:40:49.566Z,13.88
2019-05-15T00:43:18.471Z,13.50
2019-05-15T00:45:48.840Z,14.05
2019-05-15T00:48:18.308Z,13.70
2019-05-15T00:50:48.567Z,14.03
2019-05-15T00:53:19.633Z,14.40
2019-05-15T00:55:48.574Z,13.50
2019-05-15T00:58:19.942Z,14.28
2019-05-15T01:00:48.757Z,14.03
2019-05-15T01:03:18.230Z,14.95
2019-05-15T01:05:48.018Z,14.07
2019-05-15T01:08:19.118Z,15.00
2019-05-15T01:10:48.878Z,15.85
2019-05-15T01:13:19.007Z,16.42
2019-05-15T01:15:49.022Z,16.60
2019-05-15T01:18:18.667Z,15.63
2019-05-15T01:20:49.387Z,15.98
2019-05-15T01:23:18.708Z,15.05
2019-05-15T01:25:48.215Z,15.80
2019-05-15T01:28:18.380Z,15.85
2019-05-15T01:30:48.694Z,16.93
2019-05-15T01:33:18.983Z,16.45
2019-05-15T01:35:48.738Z,15.83
2019-05-15T01:38:18.744Z,16.12
2019-05-15T01:40:48.473Z,15.68
2019-05-15T01:43:18.677Z,15.58
2019-05-15T01:45:48.329Z,15.08
2019-05-15T01:48:18.919Z,16.55
2019-05-15T01:50:49.322Z,16.32
2019-05-15T01:53:18.802Z,15.10
2019-05-15T01:55:48.368Z,16.05
2019-05-15T01:58:18.608Z,16.48
2019-05-15T02:00:48.433Z,16.40
2019-05-15T02:03:18.426Z,16.45
2019-05-15T02:05:48.037Z,15.68
2019-05-15T02:08:19.066Z,16.23
2019-05-15T02:10:49.377Z,15.95
2019-05-15T02:13:18.695Z,15.70
2019-05-15T02:15:48.260Z,15.53
2019-05-15T02:18:19.141Z,17.77
2019-05-15T02:20:49.357Z,18.17
2019-05-15T02:23:18.857Z,19.23
2019-05-15T02:25:48.216Z,17.37
2019-05-15T02:28:18.378Z,17.07
2019-05-15T02:30:50.435Z,17.23
2019-05-15T02:33:18.923Z,16.45
2019-05-15T02:35:50.182Z,15.43
2019-05-15T02:38:19.915Z,14.75
2019-05-15T02:40:49.519Z,14.93
2019-05-15T02:43:19.207Z,14.25
2019-05-15T02:45:50.978Z,15.23
2019-05-15T02:48:19.907Z,15.20
2019-05-15T02:50:50.153Z,18.25
2019-05-15T02:53:19.240Z,15.32
2019-05-15T02:55:49.571Z,14.98
2019-05-15T02:58:21.283Z,15.25
2019-05-15T03:00:53.131Z,15.32
2019-05-15T03:03:20.563Z,14.05
2019-05-15T03:05:49.972Z,13.78
2019-05-15T03:08:19.757Z,14.33
2019-05-15T03:10:49.694Z,14.38
2019-05-15T03:13:19.117Z,14.30
2019-05-15T03:15:48.943Z,13.75
2019-05-15T03:18:19.474Z,12.70
2019-05-15T03:20:50.141Z,12.75
2019-05-15T03:23:19.806Z,12.63
2019-05-15T03:25:49.186Z,12.13
2019-05-15T03:28:19.123Z,12.90
2019-05-15T03:31:14.587Z,11.55
2019-05-15T03:33:27.104Z,12.25
2019-05-15T03:35:54.137Z,13.65
2019-05-15T03:38:19.674Z,12.10
2019-05-15T03:40:49.757Z,11.53
2019-05-15T03:43:18.883Z,11.63
2019-05-15T03:45:49.330Z,10.98
2019-05-15T03:48:19.603Z,11.05
2019-05-15T03:50:49.038Z,11.33
2019-05-15T03:53:19.337Z,11.00
2019-05-15T03:55:49.057Z,11.18
2019-05-15T03:58:21.502Z,11.70
2019-05-15T04:00:49.752Z,11.22
2019-05-15T04:03:20.181Z,10.50
2019-05-15T04:05:49.590Z,11.60
2019-05-15T04:08:19.481Z,10.55
2019-05-15T04:10:48.952Z,10.20
2019-05-15T04:13:19.526Z,10.50
2019-05-15T04:15:50.098Z,11.33
2019-05-15T04:18:19.981Z,12.43
2019-05-15T04:20:49.477Z,12.23
2019-05-15T04:23:21.271Z,14.15
2019-05-15T04:25:52.387Z,11.80
2019-05-15T04:28:22.033Z,10.25
2019-05-15T04:30:50.869Z,10.30
2019-05-15T04:33:19.999Z,10.15
2019-05-15T04:35:49.804Z,10.48
2019-05-15T04:38:19.498Z,10.70
2019-05-15T04:40:50.080Z,10.25
2019-05-15T04:43:19.514Z,10.63
2019-05-15T04:45:49.806Z,11.10
2019-05-15T04:48:19.997Z,10.85
2019-05-15T04:50:49.842Z,11.33
2019-05-15T04:53:19.380Z,11.10
2019-05-15T04:55:49.173Z,11.40
2019-05-15T04:58:20.769Z,11.05
2019-05-15T05:00:50.561Z,11.22
2019-05-15T05:03:20.591Z,13.18
2019-05-15T05:05:50.422Z,12.30
2019-05-15T05:08:20.378Z,11.48
2019-05-15T05:10:49.634Z,10.93
2019-05-15T05:13:19.875Z,11.88
2019-05-15T05:15:50.082Z,10.95
2019-05-15T05:18:19.757Z,11.08
2019-05-15T05:20:48.882Z,12.35
2019-05-15T05:23:19.244Z,14.95
2019-05-15T05:25:49.103Z,11.75
2019-05-15T05:28:18.495Z,11.05
2019-05-15T05:30:48.358Z,11.20
2019-05-15T05:33:18.407Z,11.28
2019-05-15T05:35:48.511Z,10.68
2019-05-15T05:38:19.135Z,11.15
2019-05-15T05:40:49.817Z,10.55
2019-05-15T05:43:19.135Z,10.30
2019-05-15T05:45:49.285Z,10.50
2019-05-15T05:48:19.006Z,9.25
2019-05-15T05:50:49.649Z,10.53
2019-05-15T05:53:20.809Z,10.13
2019-05-15T05:55:52.595Z,8.73
2019-05-15T05:58:19.898Z,9.90
2019-05-15T06:00:49.465Z,10.48
2019-05-15T06:03:19.667Z,12.25
2019-05-15T06:05:49.547Z,10.98
2019-05-15T06:08:19.847Z,9.70
2019-05-15T06:10:49.577Z,9.98
2019-05-15T06:13:18.915Z,10.88
2019-05-15T06:15:48.817Z,9.53
2019-05-15T06:18:19.580Z,13.65
2019-05-15T06:20:49.791Z,12.03
2019-05-15T06:23:23.600Z,11.48
2019-05-15T06:25:49.951Z,13.13
2019-05-15T06:28:20.096Z,12.37
2019-05-15T06:30:49.209Z,19.67
2019-05-15T06:33:18.776Z,18.62
2019-05-15T06:35:48.883Z,16.50
2019-05-15T06:38:19.349Z,12.23
2019-05-15T06:40:49.126Z,13.13
2019-05-15T06:43:19.091Z,12.07
2019-05-15T06:45:49.068Z,12.30
2019-05-15T06:48:18.563Z,12.47
2019-05-15T06:50:48.904Z,11.28
2019-05-15T06:53:19.352Z,11.78
2019-05-15T06:55:48.972Z,10.05
2019-05-15T06:58:19.180Z,11.55
2019-05-15T07:00:49.241Z,10.75
2019-05-15T07:03:25.217Z,12.00
2019-05-15T07:05:50.712Z,15.85
2019-05-15T07:08:19.662Z,12.88
2019-05-15T07:10:48.886Z,11.53
2019-05-15T07:13:18.444Z,11.40
2019-05-15T07:15:49.397Z,9.60
2019-05-15T07:18:19.923Z,10.43
2019-05-15T07:20:49.213Z,9.78
2019-05-15T07:23:18.920Z,9.48
2019-05-15T07:25:49.715Z,10.70
2019-05-15T07:28:18.543Z,10.15
2019-05-15T07:30:49.329Z,10.95
2019-05-15T07:33:27.957Z,10.65
2019-05-15T07:35:49.308Z,11.55
2019-05-15T07:38:18.601Z,10.78
2019-05-15T07:40:55.448Z,10.95
2019-05-15T07:43:18.296Z,11.43
2019-05-15T07:45:53.756Z,11.50
2019-05-15T07:48:18.907Z,12.10
2019-05-15T07:50:49.840Z,11.50
2019-05-15T07:53:19.936Z,10.60
2019-05-15T07:55:50.045Z,8.48
2019-05-15T07:58:21.036Z,9.13
2019-05-15T08:00:49.937Z,8.63
2019-05-15T08:03:18.822Z,8.75
2019-05-15T08:05:58.723Z,8.68
2019-05-15T08:08:18.692Z,9.05
2019-05-15T08:10:48.875Z,8.30
2019-05-15T08:13:18.616Z,8.15
2019-05-15T08:15:48.659Z,8.58
2019-05-15T08:18:18.385Z,7.12
2019-05-15T08:20:49.098Z,8.00
2019-05-15T08:25:48.883Z,8.15
2019-05-15T08:26:05.671Z,9.05
2019-05-15T08:28:19.073Z,7.17
2019-05-15T08:30:49.449Z,7.67
2019-05-15T08:33:18.975Z,7.05
2019-05-15T08:35:51.584Z,6.22
2019-05-15T08:38:18.614Z,5.35
2019-05-15T08:40:49.038Z,5.70
2019-05-15T08:43:18.727Z,5.67
2019-05-15T08:45:49.717Z,4.50
2019-05-15T08:48:18.626Z,4.80
2019-05-15T08:50:48.802Z,4.90
2019-05-15T08:53:19.486Z,4.70
2019-05-15T08:55:48.924Z,5.17
2019-05-15T08:58:20.405Z,4.58
2019-05-15T09:00:52.227Z,5.00
2019-05-15T09:03:18.707Z,5.20
2019-05-15T09:05:48.385Z,5.65
2019-05-15T09:08:19.217Z,5.60
2019-05-15T09:10:50.189Z,4.97
2019-05-15T09:13:19.105Z,5.40
2019-05-15T09:15:48.575Z,5.05
2019-05-15T09:18:20.244Z,4.58
2019-05-15T09:20:49.239Z,4.20
2019-05-15T09:23:19.379Z,4.37
2019-05-15T09:25:49.561Z,5.15
2019-05-15T09:28:19.712Z,4.50
2019-05-15T09:30:49.289Z,4.92
2019-05-15T09:33:19.965Z,4.72
2019-05-15T09:35:49.124Z,6.45
2019-05-15T09:38:18.686Z,5.55
2019-05-15T09:40:50.337Z,5.80
2019-05-15T09:43:18.477Z,5.47
2019-05-15T09:45:49.244Z,5.10
2019-05-15T09:48:19.695Z,5.53
2019-05-15T09:50:49.481Z,7.28
2019-05-15T09:53:19.151Z,4.95
2019-05-15T09:55:49.341Z,6.00
2019-05-15T09:58:20.146Z,5.05
2019-05-15T10:00:51.662Z,5.47
2019-05-15T10:03:20.377Z,5.65
2019-05-15T10:05:49.266Z,5.70
2019-05-15T10:08:20.934Z,5.92
2019-05-15T10:10:48.887Z,6.60
2019-05-15T10:13:18.707Z,5.83
2019-05-15T10:15:50.931Z,5.67
2019-05-15T10:18:19.204Z,6.85
2019-05-15T10:20:48.152Z,5.00
2019-05-15T10:23:19.670Z,6.00
2019-05-15T10:25:48.476Z,6.47
2019-05-15T10:28:19.088Z,5.80
2019-05-15T10:30:49.663Z,4.92
2019-05-15T10:33:19.655Z,5.15
2019-05-15T10:35:49.185Z,5.35
2019-05-15T10:38:19.281Z,5.42
2019-05-15T10:40:59.901Z,5.20
2019-05-15T10:43:20.702Z,5.25
2019-05-15T10:45:50.248Z,5.47
2019-05-15T10:48:19.402Z,9.80
2019-05-15T10:50:48.126Z,5.58
2019-05-15T10:53:18.686Z,5.50
2019-05-15T10:55:49.485Z,5.85
2019-05-15T10:58:21.872Z,5.37
2019-05-15T11:00:49.574Z,5.87
2019-05-15T11:03:20.037Z,4.97
2019-05-15T11:05:49.406Z,5.25
2019-05-15T11:08:19.021Z,6.00
2019-05-15T11:10:49.519Z,6.40
2019-05-15T11:13:19.012Z,6.28
2019-05-15T11:15:49.180Z,8.65
2019-05-15T11:18:18.265Z,8.38
2019-05-15T11:20:48.597Z,10.08
2019-05-15T11:23:19.874Z,9.80
2019-05-15T11:25:48.846Z,9.93
2019-05-15T11:28:17.983Z,11.78
2019-05-15T11:30:49.074Z,12.10
2019-05-15T11:33:18.783Z,13.65
2019-05-15T11:35:58.187Z,14.93
2019-05-15T11:38:19.459Z,14.35
2019-05-15T11:40:48.468Z,16.85
2019-05-15T11:43:19.637Z,19.20
2019-05-15T11:45:48.453Z,20.35
2019-05-15T11:48:20.173Z,19.87
2019-05-15T11:50:47.854Z,22.13
2019-05-15T11:53:19.090Z,20.95
2019-05-15T11:55:48.108Z,21.85
2019-05-15T11:58:18.910Z,23.10
2019-05-15T12:00:49.139Z,23.45
2019-05-15T12:03:19.079Z,23.32
2019-05-15T12:05:48.097Z,25.00
2019-05-15T12:08:18.561Z,24.32
2019-05-15T12:10:47.330Z,24.45
2019-05-15T12:13:18.702Z,24.00
2019-05-15T12:15:48.487Z,25.92
2019-05-15T12:18:17.178Z,26.65
2019-05-15T12:20:48.318Z,25.05
2019-05-15T12:23:16.454Z,24.72
2019-05-15T12:25:45.247Z,25.60
2019-05-15T12:28:13.991Z,25.70
2019-05-15T12:30:42.731Z,23.25
2019-05-15T12:33:11.496Z,24.70
2019-05-15T12:35:40.468Z,25.57
2019-05-15T13:00:43.743Z,24.63
2019-05-15T13:03:12.475Z,26.07
2019-05-15T13:05:41.268Z,24.90
2019-05-15T13:08:10.015Z,22.55
2019-05-15T13:10:38.928Z,25.23
2019-05-15T13:13:09.635Z,24.30
2019-05-15T13:15:40.799Z,23.62
2019-05-15T13:18:13.790Z,24.77
2019-05-15T13:20:39.283Z,25.72
2019-05-15T13:23:09.121Z,26.07
2019-05-15T13:25:39.333Z,38.83
2019-05-15T13:28:09.116Z,26.48
2019-05-15T13:30:41.285Z,30.43
2019-05-15T13:33:09.758Z,30.72
2019-05-15T13:35:39.293Z,28.92
2019-05-15T13:38:09.956Z,30.37
2019-05-15T13:40:42.102Z,33.60
2019-05-15T13:43:09.054Z,31.85
2019-05-15T13:45:38.584Z,37.48
2019-05-15T13:48:08.801Z,36.35
2019-05-15T13:50:40.550Z,35.30
2019-05-15T13:53:10.438Z,37.48
2019-05-15T13:55:42.444Z,39.65
2019-05-15T13:58:09.679Z,39.30
2019-05-15T14:00:39.195Z,37.93
2019-05-15T14:03:09.219Z,35.00
2019-05-15T14:05:38.732Z,35.40
2019-05-15T14:08:07.619Z,34.78
2019-05-15T14:10:38.638Z,36.77
2019-05-15T14:13:06.857Z,36.20
2019-05-15T14:15:38.045Z,37.73
2019-05-15T14:18:08.366Z,43.45
2019-05-15T14:20:38.673Z,35.75
2019-05-15T14:23:08.734Z,38.53
2019-05-15T14:25:38.796Z,51.40
2019-05-15T14:28:08.872Z,41.48
2019-05-15T14:30:37.947Z,51.60
2019-05-15T14:33:08.482Z,46.98
2019-05-15T14:35:37.979Z,122.67
2019-05-15T14:38:10.208Z,68.45
2019-05-15T14:40:37.389Z,39.08
2019-05-15T14:43:08.908Z,46.37
2019-05-15T14:45:38.850Z,44.33
2019-05-15T14:48:08.850Z,41.53
2019-05-15T14:50:38.580Z,44.20
2019-05-15T14:53:09.570Z,42.10
2019-05-15T14:55:44.083Z,45.65
2019-05-15T14:58:08.696Z,40.90
2019-05-15T15:00:41.242Z,40.03
2019-05-15T15:03:09.718Z,40.75
2019-05-15T15:05:39.063Z,41.48
2019-05-15T15:08:18.448Z,38.80
2019-05-15T15:10:38.909Z,38.38
2019-05-15T15:13:09.266Z,39.55
2019-05-15T15:15:38.224Z,42.45
2019-05-15T15:18:08.250Z,38.00
2019-05-15T15:20:38.017Z,37.83
2019-05-15T15:23:08.504Z,37.58
2019-05-15T15:25:39.831Z,38.28
2019-05-15T15:28:08.736Z,38.60
2019-05-15T15:30:39.756Z,41.53
2019-05-15T15:33:08.791Z,40.15
2019-05-15T15:35:38.304Z,42.30
2019-05-15T15:38:12.752Z,39.73
2019-05-15T15:40:38.896Z,38.25
2019-05-15T15:43:09.103Z,41.02
2019-05-15T15:45:39.146Z,41.35
2019-05-15T15:48:08.525Z,39.67
2019-05-15T15:50:38.383Z,40.85
2019-05-15T15:53:08.831Z,42.08
2019-05-15T15:55:38.696Z,43.25
2019-05-15T15:58:08.823Z,43.33
2019-05-15T16:00:38.542Z,46.95
2019-05-15T16:03:08.454Z,47.30
2019-05-15T16:05:38.450Z,52.13
2019-05-15T16:08:08.606Z,51.20
2019-05-15T16:10:38.061Z,51.50
2019-05-15T16:13:09.192Z,52.85
2019-05-15T16:15:38.545Z,50.40
2019-05-15T16:18:08.991Z,51.45
2019-05-15T16:20:39.529Z,52.03
2019-05-15T16:23:08.744Z,52.50
2019-05-15T16:25:38.418Z,51.80
2019-05-15T16:28:08.775Z,52.78
2019-05-15T16:30:50.426Z,53.42
2019-05-15T16:33:09.409Z,54.88
2019-05-15T16:35:38.830Z,54.58
2019-05-15T16:38:09.370Z,55.15
2019-05-15T16:40:38.450Z,52.75
2019-05-15T16:43:07.420Z,53.15
2019-05-15T16:45:38.582Z,53.95
2019-05-15T16:48:09.283Z,51.15
2019-05-15T16:50:38.073Z,50.90
2019-05-15T16:53:09.198Z,52.45
2019-05-15T16:55:37.908Z,49.77
2019-05-15T16:58:09.151Z,49.38
2019-05-15T17:00:38.449Z,53.78
2019-05-15T17:03:14.299Z,52.27
2019-05-15T17:05:38.706Z,56.25
2019-05-15T17:08:09.150Z,51.25
2019-05-15T17:10:38.779Z,51.13
2019-05-15T17:13:08.786Z,49.58
2019-05-15T17:15:38.435Z,49.67
2019-05-15T17:18:09.034Z,48.02
2019-05-15T17:20:37.960Z,48.10
2019-05-15T17:23:08.592Z,45.43
2019-05-15T17:25:38.273Z,45.63
2019-05-15T17:28:09.078Z,51.80
2019-05-15T17:30:38.291Z,45.40
2019-05-15T17:33:07.158Z,44.00
2019-05-15T17:35:38.017Z,44.08
2019-05-15T17:38:06.427Z,44.50
2019-05-15T17:40:35.149Z,42.40
2019-05-15T17:43:03.935Z,40.73
2019-05-15T17:45:33.039Z,39.03
2019-05-15T17:48:01.851Z,39.83
2019-05-15T17:50:44.722Z,35.68
2019-05-15T17:53:01.077Z,31.37
2019-05-15T17:55:29.870Z,28.52
2019-05-15T17:58:01.069Z,64.62
2019-05-15T18:00:29.180Z,40.17
2019-05-15T18:02:58.229Z,49.93
2019-05-15T18:05:28.301Z,91.47
2019-05-15T18:07:58.339Z,44.60
2019-05-15T18:10:27.977Z,35.55
2019-05-15T18:12:58.397Z,47.55
2019-05-15T18:15:27.286Z,29.12
2019-05-15T18:17:58.984Z,30.43
2019-05-15T18:20:30.259Z,28.67
2019-05-15T18:22:59.412Z,42.88
2019-05-15T18:25:28.256Z,34.33
2019-05-15T18:27:59.282Z,34.27
2019-05-15T18:30:28.158Z,36.85
2019-05-15T18:32:58.766Z,34.33
2019-05-15T18:35:29.482Z,30.92
2019-05-15T18:37:59.074Z,31.42
2019-05-15T18:40:28.131Z,32.42
2019-05-15T18:42:59.270Z,35.17
2019-05-15T18:45:28.947Z,34.00
2019-05-15T18:47:58.655Z,38.15
2019-05-15T18:50:28.469Z,36.73
2019-05-15T18:52:58.458Z,40.73
2019-05-15T18:55:27.477Z,34.13
2019-05-15T18:57:58.497Z,38.15
2019-05-15T19:00:29.574Z,38.90
2019-05-15T19:02:59.536Z,32.53
2019-05-15T19:05:28.236Z,34.53
2019-05-15T19:07:57.950Z,34.67
2019-05-15T19:10:28.176Z,34.13
2019-05-15T19:12:58.158Z,31.12
2019-05-15T19:15:28.701Z,33.23
2019-05-15T19:17:58.625Z,36.35
2019-05-15T19:20:28.233Z,39.40
2019-05-15T19:22:58.939Z,36.93
2019-05-15T19:25:28.663Z,34.48
2019-05-15T19:27:57.823Z,37.30
2019-05-15T19:30:28.738Z,37.30
2019-05-15T19:32:58.516Z,32.05
2019-05-15T19:35:28.185Z,36.25
2019-05-15T19:37:58.477Z,34.60
2019-05-15T19:40:28.347Z,36.03
2019-05-15T19:42:59.092Z,34.92
2019-05-15T19:45:28.345Z,34.03
2019-05-15T19:47:58.662Z,32.58
2019-05-15T19:50:28.765Z,35.50
2019-05-15T19:52:59.203Z,35.10
2019-05-15T19:55:28.203Z,35.95
2019-05-15T19:57:58.871Z,36.45
2019-05-15T20:00:28.443Z,38.63
2019-05-15T20:02:59.315Z,37.08
2019-05-15T20:05:28.988Z,38.65
2019-05-15T20:07:58.806Z,37.20
2019-05-15T20:10:29.335Z,39.30
2019-05-15T20:12:59.459Z,37.85
2019-05-15T20:15:28.663Z,38.33
2019-05-15T20:17:57.865Z,38.67
2019-05-15T20:20:28.339Z,39.70
2019-05-15T20:22:59.912Z,39.30
2019-05-15T20:25:28.123Z,39.58
2019-05-15T20:27:56.939Z,39.30
2019-05-15T20:30:25.740Z,42.48
2019-05-15T20:32:54.484Z,40.28
2019-05-15T20:35:23.243Z,43.60
2019-05-15T20:37:52.301Z,41.48
2019-05-15T20:40:21.132Z,43.02
2019-05-15T20:42:49.950Z,43.95
2019-05-15T20:45:18.786Z,42.05
2019-05-15T20:47:47.539Z,43.23
2019-05-15T20:50:19.454Z,44.03
2019-05-15T20:52:49.033Z,46.42
2019-05-15T20:55:18.118Z,47.35
2019-05-15T20:57:50.270Z,51.85
2019-05-15T21:00:19.187Z,85.57
2019-05-15T21:02:48.735Z,100.42
2019-05-15T21:05:18.698Z,64.27
2019-05-15T21:07:48.603Z,66.05
2019-05-15T21:10:21.251Z,68.42
2019-05-15T21:12:48.977Z,56.90
2019-05-15T21:15:21.524Z,71.60
2019-05-15T21:17:57.740Z,59.42
2019-05-15T21:20:20.410Z,63.90
2019-05-15T21:22:50.291Z,61.08
2019-05-15T21:25:19.801Z,66.95
2019-05-15T21:27:49.160Z,70.92
2019-05-15T21:30:19.717Z,70.42
2019-05-15T21:32:49.270Z,65.90
2019-05-15T21:35:19.540Z,58.55
2019-05-15T21:37:48.984Z,64.42
2019-05-15T21:40:18.046Z,61.65
2019-05-15T21:42:49.212Z,68.15
2019-05-15T21:45:18.444Z,64.07
2019-05-15T21:47:47.418Z,61.98
2019-05-15T21:50:19.337Z,66.35
2019-05-15T21:52:49.429Z,61.08
2019-05-15T21:55:18.934Z,66.07
2019-05-15T21:57:47.833Z,64.70
2019-05-15T22:00:19.538Z,60.85
2019-05-15T22:02:49.407Z,63.60
2019-05-15T22:05:19.075Z,63.95
2019-05-15T22:07:51.069Z,63.90
2019-05-15T22:10:19.631Z,65.12
2019-05-15T22:12:48.519Z,65.52
2019-05-15T22:15:19.039Z,63.52
2019-05-15T22:17:49.409Z,64.85
2019-05-15T22:20:18.995Z,64.53
2019-05-15T22:22:50.446Z,68.55
2019-05-15T22:25:19.288Z,62.48
2019-05-15T22:27:48.628Z,63.95
2019-05-15T22:30:18.594Z,65.80
2019-05-15T22:32:49.404Z,63.08
2019-05-15T22:35:18.926Z,64.27
2019-05-15T22:37:49.380Z,75.03
2019-05-15T22:40:18.620Z,64.92
2019-05-15T22:42:48.689Z,66.85
2019-05-15T22:45:18.981Z,66.82
2019-05-15T22:47:48.342Z,61.80
2019-05-15T22:50:19.119Z,61.08
2019-05-15T22:52:49.208Z,60.83
2019-05-15T22:55:18.544Z,60.98
2019-05-15T22:57:48.073Z,64.25
2019-05-15T23:00:18.694Z,60.08
2019-05-15T23:02:48.828Z,61.25
2019-05-15T23:05:27.984Z,58.95
2019-05-15T23:07:48.458Z,57.40
2019-05-15T23:10:17.284Z,52.50
2019-05-15T23:12:46.044Z,57.95
2019-05-15T23:15:15.110Z,54.53
2019-05-15T23:17:43.884Z,54.40
2019-05-15T23:20:13.099Z,56.05
2019-05-15T23:22:41.893Z,53.95
2019-05-15T23:25:10.864Z,54.10
2019-05-15T23:27:39.687Z,53.00
2019-05-15T23:30:09.137Z,52.33
2019-05-15T23:32:39.028Z,54.25
2019-05-15T23:35:09.118Z,53.40
2019-05-15T23:37:39.142Z,50.78
2019-05-15T23:40:09.148Z,52.35
2019-05-15T23:42:38.946Z,53.23
2019-05-15T23:45:09.474Z,51.45
2019-05-15T23:47:38.608Z,53.52
2019-05-15T23:50:07.655Z,52.75
2019-05-15T23:52:38.585Z,53.95
2019-05-15T23:55:08.747Z,52.67
2019-05-15T23:57:39.323Z,53.38
